Time;durP1;ratioP1;P1;durP2;ratioP2;P2;SDS_P1;SDS_P2;PMS_P1;PMS_P2;Temp;Humidity;BMP_temperature;BMP_pressure;BME280_temperature;BME280_humidity;BME280_pressure;Samples;Min_cycle;Max_cycle;Signal;HPM_P1;HPM_P2
2021/09/15 00:01:25;;;;;;;19.70;14.65;;;19.30;99.90;;;;;;5015677;28;20052;-79
2021/09/15 00:03:51;;;;;;;19.13;15.50;;;19.30;99.90;;;;;;5015420;28;20019;-79
2021/09/15 00:06:16;;;;;;;20.00;15.57;;;19.30;99.90;;;;;;5016719;28;20104;-79
2021/09/15 00:08:42;;;;;;;18.52;14.55;;;19.40;99.90;;;;;;5015892;28;20041;-79
2021/09/15 00:11:08;;;;;;;17.88;14.45;;;19.40;99.90;;;;;;5015488;28;20116;-79
2021/09/15 00:13:34;;;;;;;17.17;14.52;;;19.40;99.90;;;;;;5015614;28;20029;-79
2021/09/15 00:15:59;;;;;;;17.27;14.63;;;19.40;99.90;;;;;;5015362;28;20030;-79
2021/09/15 00:18:25;;;;;;;21.08;15.40;;;19.40;99.90;;;;;;5018239;28;20022;-79
2021/09/15 00:20:50;;;;;;;23.75;16.40;;;19.40;99.90;;;;;;5015457;28;20053;-77
2021/09/15 00:23:17;;;;;;;21.85;16.80;;;19.40;99.90;;;;;;5013361;28;20061;-78
2021/09/15 00:25:43;;;;;;;21.65;16.58;;;19.60;99.90;;;;;;5016324;28;20026;-77
2021/09/15 00:28:09;;;;;;;19.50;16.10;;;19.60;99.90;;;;;;5013491;28;20034;-77
2021/09/15 00:30:34;;;;;;;19.13;16.15;;;19.60;99.90;;;;;;5013796;28;20053;-78
2021/09/15 00:33:00;;;;;;;21.13;16.88;;;19.60;99.90;;;;;;5011621;28;20133;-77
2021/09/15 00:35:26;;;;;;;21.90;15.35;;;19.60;99.90;;;;;;5013623;28;20025;-77
2021/09/15 00:37:51;;;;;;;21.67;17.08;;;19.60;99.90;;;;;;5011866;28;20471;-77
2021/09/15 00:40:17;;;;;;;21.35;16.95;;;19.70;99.90;;;;;;5013454;28;20049;-78
2021/09/15 00:42:42;;;;;;;21.17;16.08;;;19.60;99.90;;;;;;5013604;28;20456;-77
2021/09/15 00:45:08;;;;;;;22.13;16.90;;;19.60;99.90;;;;;;5012260;28;20026;-77
2021/09/15 00:47:34;;;;;;;22.90;17.38;;;19.70;99.90;;;;;;5012115;28;20026;-77
2021/09/15 00:50:00;;;;;;;26.90;18.10;;;19.70;99.90;;;;;;5013650;28;20026;-77
2021/09/15 00:52:25;;;;;;;19.50;17.60;;;19.80;99.90;;;;;;5011854;28;20025;-77
2021/09/15 00:54:52;;;;;;;23.65;18.98;;;19.80;99.90;;;;;;5013276;28;20038;-77
2021/09/15 00:57:18;;;;;;;25.45;18.40;;;19.90;99.90;;;;;;5012928;28;20029;-76
2021/09/15 00:59:44;;;;;;;20.55;17.98;;;19.90;99.90;;;;;;5012856;28;20097;-77
2021/09/15 01:02:09;;;;;;;20.55;16.58;;;19.90;99.90;;;;;;5012884;28;20041;-77
2021/09/15 01:04:35;;;;;;;20.67;17.23;;;19.90;99.90;;;;;;5011704;28;20026;-77
2021/09/15 01:07:01;;;;;;;21.75;17.60;;;20.00;99.90;;;;;;5011710;28;20026;-77
2021/09/15 01:09:29;;;;;;;23.95;18.25;;;20.00;99.90;;;;;;5011434;28;20479;-77
2021/09/15 01:11:55;;;;;;;26.95;16.48;;;20.10;99.90;;;;;;5012799;28;20376;-77
2021/09/15 01:14:21;;;;;;;15.82;14.05;;;20.00;99.90;;;;;;5012815;28;20029;-77
2021/09/15 01:16:54;;;;;;;16.80;15.10;;;19.80;99.90;;;;;;5012858;28;20080;-78
2021/09/15 01:19:22;;;;;;;22.38;16.65;;;19.80;99.90;;;;;;5012781;28;20101;-78
2021/09/15 01:21:48;;;;;;;20.52;17.13;;;19.90;99.90;;;;;;5012668;28;20021;-76
2021/09/15 01:24:14;;;;;;;19.08;16.48;;;19.80;99.90;;;;;;5012606;28;20018;-76
2021/09/15 01:26:40;;;;;;;21.38;15.73;;;19.90;99.90;;;;;;5012734;28;20037;-77
2021/09/15 01:29:11;;;;;;;20.17;14.73;;;19.90;99.90;;;;;;5014361;28;20026;-77
2021/09/15 01:31:37;;;;;;;16.52;14.07;;;19.80;99.90;;;;;;5011912;28;20037;-78
2021/09/15 01:34:02;;;;;;;19.08;13.95;;;19.70;99.90;;;;;;5014473;28;20029;-79
2021/09/15 01:36:28;;;;;;;18.00;15.25;;;19.80;99.90;;;;;;5013995;28;20101;-77
2021/09/15 01:38:54;;;;;;;17.73;15.27;;;19.80;99.90;;;;;;5011613;28;20064;-79
2021/09/15 01:41:19;;;;;;;25.98;18.33;;;19.80;99.90;;;;;;5011455;28;20122;-78
2021/09/15 01:43:51;;;;;;;22.63;17.50;;;20.00;99.90;;;;;;5011679;28;20439;-78
2021/09/15 01:46:17;;;;;;;18.90;16.23;;;20.10;99.90;;;;;;5011264;28;20033;-78
2021/09/15 01:48:43;;;;;;;21.08;15.48;;;20.00;99.90;;;;;;5011161;28;20030;-78
2021/09/15 01:51:08;;;;;;;21.50;15.23;;;19.90;99.90;;;;;;5012424;28;20034;-78
2021/09/15 01:53:34;;;;;;;19.83;16.58;;;19.80;99.90;;;;;;5011067;28;20046;-79
2021/09/15 01:56:00;;;;;;;20.30;16.80;;;19.80;99.90;;;;;;5011235;28;20033;-78
2021/09/15 01:58:26;;;;;;;18.25;15.85;;;19.80;99.90;;;;;;5011057;28;20080;-78
2021/09/15 02:00:52;;;;;;;18.67;14.57;;;19.80;99.90;;;;;;5013768;28;20030;-79
2021/09/15 02:03:17;;;;;;;22.58;15.20;;;19.70;99.90;;;;;;5016431;28;20430;-79
2021/09/15 02:05:43;;;;;;;18.40;16.23;;;19.60;99.90;;;;;;5019892;28;20034;-79
2021/09/15 02:08:08;;;;;;;27.13;16.20;;;19.60;99.90;;;;;;5017614;28;20026;-79
2021/09/15 02:10:34;;;;;;;17.75;15.25;;;19.60;99.90;;;;;;5017601;28;20026;-78
2021/09/15 02:13:00;;;;;;;16.60;14.88;;;19.60;99.90;;;;;;5019003;28;20054;-78
2021/09/15 02:15:25;;;;;;;18.90;15.65;;;19.50;99.90;;;;;;5019384;28;20475;-78
2021/09/15 02:17:51;;;;;;;20.10;16.20;;;19.40;99.90;;;;;;5019127;28;20030;-78
2021/09/15 02:20:17;;;;;;;18.92;15.68;;;19.50;99.90;;;;;;5017737;28;20124;-78
2021/09/15 02:22:42;;;;;;;21.10;16.08;;;19.50;99.90;;;;;;5017991;28;20114;-78
2021/09/15 02:25:09;;;;;;;17.60;14.95;;;19.40;99.90;;;;;;5017242;28;20451;-78
2021/09/15 02:27:34;;;;;;;20.55;14.85;;;19.40;99.90;;;;;;5017074;28;20037;-79
2021/09/15 02:30:00;;;;;;;17.42;14.55;;;19.40;99.90;;;;;;5017054;28;20026;-79
2021/09/15 02:32:25;;;;;;;18.67;14.90;;;19.40;99.90;;;;;;5018460;28;20471;-78
2021/09/15 02:34:51;;;;;;;17.65;14.10;;;19.40;99.90;;;;;;5016590;28;20045;-78
2021/09/15 02:37:17;;;;;;;19.27;15.30;;;19.30;99.90;;;;;;5017244;28;20506;-78
2021/09/15 02:39:42;;;;;;;20.98;15.35;;;19.30;99.90;;;;;;5016791;28;20021;-79
2021/09/15 02:42:08;;;;;;;18.98;14.85;;;19.20;99.90;;;;;;5017069;28;20034;-78
2021/09/15 02:44:34;;;;;;;20.83;17.10;;;19.30;99.90;;;;;;5016165;28;20030;-79
2021/09/15 02:46:59;;;;;;;23.08;17.88;;;19.40;99.90;;;;;;5016867;28;20033;-79
2021/09/15 02:49:27;;;;;;;22.15;17.88;;;19.40;99.90;;;;;;5016848;28;20041;-79
2021/09/15 02:51:54;;;;;;;22.08;16.33;;;19.50;99.90;;;;;;5017268;28;20120;-79
2021/09/15 02:54:20;;;;;;;21.05;17.40;;;19.40;99.90;;;;;;5016986;28;20049;-78
2021/09/15 02:56:46;;;;;;;20.25;17.85;;;19.20;99.90;;;;;;5016711;28;20037;-78
2021/09/15 02:59:11;;;;;;;26.27;19.42;;;19.20;99.90;;;;;;5016397;28;20022;-78
2021/09/15 03:01:37;;;;;;;22.17;19.77;;;19.20;99.90;;;;;;5017169;28;20018;-78
2021/09/15 03:04:03;;;;;;;22.23;19.92;;;19.30;99.90;;;;;;5016688;28;20026;-78
2021/09/15 03:06:29;;;;;;;21.73;18.67;;;19.30;99.90;;;;;;5016755;28;20053;-78
2021/09/15 03:08:54;;;;;;;23.02;18.88;;;19.20;99.90;;;;;;5015943;28;20042;-78
2021/09/15 03:11:20;;;;;;;26.05;20.52;;;19.20;99.90;;;;;;5015927;28;20076;-78
2021/09/15 03:13:46;;;;;;;27.95;21.63;;;19.20;99.90;;;;;;5016289;28;20131;-78
2021/09/15 03:16:13;;;;;;;26.88;21.30;;;19.30;99.90;;;;;;5016480;28;20160;-78
2021/09/15 03:18:38;;;;;;;30.83;22.23;;;19.40;99.90;;;;;;5016673;28;20022;-78
2021/09/15 03:21:04;;;;;;;27.40;22.17;;;19.40;99.90;;;;;;5016917;28;20033;-79
2021/09/15 03:23:30;;;;;;;26.42;20.38;;;19.60;99.90;;;;;;5015649;28;20022;-79
2021/09/15 03:25:55;;;;;;;24.75;21.35;;;19.60;99.90;;;;;;5015993;28;20424;-79
2021/09/15 03:28:21;;;;;;;27.13;20.48;;;19.70;99.90;;;;;;5017747;28;20049;-79
2021/09/15 03:30:47;;;;;;;29.70;21.98;;;19.80;99.90;;;;;;5015976;28;20076;-79
2021/09/15 03:33:13;;;;;;;24.88;20.88;;;19.80;99.90;;;;;;5017900;28;20042;-79
2021/09/15 03:35:38;;;;;;;23.27;20.17;;;19.80;99.90;;;;;;5016051;28;20311;-79
2021/09/15 03:38:04;;;;;;;27.70;20.92;;;19.70;99.90;;;;;;5017943;28;20037;-79
2021/09/15 03:40:29;;;;;;;28.95;23.05;;;19.80;99.90;;;;;;5016360;28;20089;-78
2021/09/15 03:42:55;;;;;;;27.65;21.15;;;20.00;99.90;;;;;;5015859;28;20416;-79
2021/09/15 03:45:21;;;;;;;27.83;22.08;;;20.00;99.90;;;;;;5016997;28;20498;-79
2021/09/15 03:47:46;;;;;;;28.65;21.35;;;20.00;99.90;;;;;;5017660;28;20080;-78
2021/09/15 03:50:12;;;;;;;25.17;18.23;;;19.90;99.90;;;;;;5017479;28;20037;-79
2021/09/15 03:52:38;;;;;;;28.95;19.83;;;19.70;99.90;;;;;;5016530;28;20053;-78
2021/09/15 03:55:04;;;;;;;25.83;20.35;;;19.80;99.90;;;;;;5014603;28;20084;-78
2021/09/15 03:57:30;;;;;;;26.25;22.20;;;19.80;99.90;;;;;;5013230;28;20042;-78
2021/09/15 03:59:55;;;;;;;28.25;22.20;;;19.80;99.90;;;;;;5015245;28;20523;-78
2021/09/15 04:02:21;;;;;;;30.67;22.80;;;19.70;99.90;;;;;;5015385;28;20028;-78
2021/09/15 04:04:47;;;;;;;30.48;22.75;;;19.80;99.90;;;;;;5017107;28;20467;-78
2021/09/15 04:07:12;;;;;;;32.42;22.95;;;19.80;99.90;;;;;;5015471;28;20461;-79
2021/09/15 04:09:38;;;;;;;30.83;23.75;;;19.80;99.90;;;;;;5015250;28;20403;-77
2021/09/15 04:12:04;;;;;;;36.10;23.70;;;19.80;99.90;;;;;;5014491;28;20087;-79
2021/09/15 04:14:30;;;;;;;27.85;24.00;;;19.80;99.90;;;;;;5016141;28;20130;-79
2021/09/15 04:16:56;;;;;;;29.10;24.50;;;19.80;99.90;;;;;;5015602;28;20030;-79
2021/09/15 04:19:21;;;;;;;29.95;25.23;;;19.80;99.90;;;;;;5014103;28;20022;-79
2021/09/15 04:21:47;;;;;;;31.23;26.00;;;19.80;99.90;;;;;;5015276;28;20033;-79
2021/09/15 04:32:12;;;;;;;33.95;26.23;;;19.80;99.90;;;;;;5016058;28;20479;-79
2021/09/15 04:34:38;;;;;;;33.33;27.50;;;19.80;99.90;;;;;;5016042;28;20152;-79
2021/09/15 04:37:03;;;;;;;33.65;27.08;;;19.70;99.90;;;;;;5014528;28;20026;-78
2021/09/15 04:39:29;;;;;;;35.08;28.70;;;19.70;99.90;;;;;;5015965;28;20036;-78
2021/09/15 04:41:55;;;;;;;37.00;31.58;;;19.60;99.90;;;;;;5012388;28;20018;-78
2021/09/15 04:44:20;;;;;;;41.53;33.47;;;19.60;99.90;;;;;;5011999;28;20021;-78
2021/09/15 04:46:46;;;;;;;43.30;37.95;;;19.60;99.90;;;;;;5012957;28;20080;-78
2021/09/15 04:49:11;;;;;;;49.03;39.85;;;19.50;99.90;;;;;;5011838;28;20080;-78
2021/09/15 04:51:37;;;;;;;47.05;39.22;;;19.50;99.90;;;;;;5014107;28;20033;-79
2021/09/15 04:54:03;;;;;;;49.03;38.78;;;19.50;99.90;;;;;;5013759;28;20046;-79
2021/09/15 04:56:28;;;;;;;45.55;40.63;;;19.40;99.90;;;;;;5015375;28;20030;-78
2021/09/15 04:58:54;;;;;;;52.15;42.03;;;19.40;99.90;;;;;;5013826;28;20467;-78
2021/09/15 05:01:20;;;;;;;52.83;40.45;;;19.40;99.90;;;;;;5015173;28;20018;-79
2021/09/15 05:03:45;;;;;;;52.25;41.20;;;19.40;99.90;;;;;;5013930;28;20508;-78
2021/09/15 05:06:11;;;;;;;54.08;42.83;;;19.40;99.90;;;;;;5014031;28;20037;-78
2021/09/15 05:08:36;;;;;;;62.40;46.30;;;19.50;99.90;;;;;;5015539;28;20084;-78
2021/09/15 05:11:02;;;;;;;61.17;47.10;;;19.50;99.90;;;;;;5014030;28;20033;-78
2021/09/15 05:13:28;;;;;;;64.95;49.25;;;19.40;99.90;;;;;;5015768;28;20053;-78
2021/09/15 05:15:54;;;;;;;67.95;49.90;;;19.40;99.90;;;;;;5015965;28;20026;-78
2021/09/15 05:18:19;;;;;;;68.60;50.53;;;19.40;99.90;;;;;;5015383;28;20101;-79
2021/09/15 05:20:45;;;;;;;70.40;53.08;;;19.40;99.90;;;;;;5015070;28;20034;-78
2021/09/15 05:23:10;;;;;;;74.43;54.00;;;19.40;99.90;;;;;;5015019;28;20032;-78
2021/09/15 05:25:36;;;;;;;78.05;55.33;;;19.40;99.90;;;;;;5014132;28;20018;-79
2021/09/15 05:28:03;;;;;;;73.47;54.40;;;19.40;99.90;;;;;;5014268;28;20483;-79
2021/09/15 05:30:29;;;;;;;82.82;57.30;;;19.30;99.90;;;;;;5014014;28;20537;-79
2021/09/15 05:32:54;;;;;;;88.70;58.50;;;19.30;99.90;;;;;;5014028;28;20026;-79
2021/09/15 05:35:21;;;;;;;89.30;59.78;;;19.40;99.90;;;;;;5011253;28;20034;-79
2021/09/15 05:37:46;;;;;;;86.85;59.40;;;19.50;99.90;;;;;;5012498;28;20387;-78
2021/09/15 05:40:12;;;;;;;84.30;58.08;;;19.50;99.90;;;;;;5011280;28;20025;-78
2021/09/15 05:42:38;;;;;;;80.25;58.00;;;19.40;99.90;;;;;;5011594;28;20034;-78
2021/09/15 05:45:05;;;;;;;84.15;57.00;;;19.40;99.90;;;;;;5011238;28;20033;-78
2021/09/15 05:47:32;;;;;;;88.47;58.22;;;19.30;99.90;;;;;;5007530;28;20033;-78
2021/09/15 05:49:59;;;;;;;87.13;59.33;;;19.40;99.90;;;;;;5009541;28;20034;-79
2021/09/15 05:52:25;;;;;;;82.93;57.35;;;19.30;99.90;;;;;;5010744;28;20098;-79
2021/09/15 05:54:50;;;;;;;87.20;58.38;;;19.30;99.90;;;;;;5002600;28;20037;-78
2021/09/15 05:57:16;;;;;;;86.53;57.92;;;19.30;99.90;;;;;;5009099;28;20113;-79
2021/09/15 05:59:42;;;;;;;87.50;56.50;;;19.30;99.90;;;;;;5013341;28;20018;-79
2021/09/15 06:02:07;;;;;;;91.05;59.88;;;19.30;99.90;;;;;;5007700;28;20036;-79
2021/09/15 06:04:33;;;;;;;86.45;57.38;;;19.20;99.90;;;;;;5012811;28;20045;-78
2021/09/15 06:06:59;;;;;;;86.43;57.30;;;19.20;99.90;;;;;;5014687;28;20035;-80
2021/09/15 06:09:24;;;;;;;90.65;59.33;;;19.20;99.90;;;;;;5003682;28;20111;-79
2021/09/15 06:11:50;;;;;;;91.72;59.80;;;19.20;99.90;;;;;;5008263;28;20026;-83
2021/09/15 06:14:16;;;;;;;94.00;58.50;;;19.30;99.90;;;;;;5004018;28;20034;-82
2021/09/15 06:16:41;;;;;;;86.35;56.33;;;19.30;99.90;;;;;;5007801;28;20034;-80
2021/09/15 06:19:07;;;;;;;89.07;60.10;;;19.20;99.90;;;;;;5009831;28;20022;-80
2021/09/15 06:21:33;;;;;;;90.38;60.70;;;19.10;99.90;;;;;;5012023;28;20026;-83
2021/09/15 06:23:59;;;;;;;87.97;58.17;;;19.20;99.90;;;;;;5012438;28;20022;-81
2021/09/15 06:26:25;;;;;;;93.97;60.72;;;19.20;99.90;;;;;;5012612;28;20509;-83
2021/09/15 06:28:55;;;;;;;90.55;57.08;;;19.20;99.90;;;;;;5007090;28;20494;-80
2021/09/15 06:31:24;;;;;;;84.03;55.30;;;19.30;99.90;;;;;;5013572;28;20030;-86
2021/09/15 06:33:49;;;;;;;83.43;56.10;;;19.40;99.90;;;;;;5003347;28;20034;-82
2021/09/15 06:36:16;;;;;;;87.05;57.17;;;19.30;99.90;;;;;;4997316;28;20096;-79
2021/09/15 06:38:45;;;;;;;81.18;56.30;;;19.20;99.90;;;;;;4997299;28;20463;-78
2021/09/15 06:41:11;;;;;;;83.70;54.83;;;19.30;99.90;;;;;;4990959;28;20029;-77
2021/09/15 06:43:38;;;;;;;87.15;56.05;;;19.30;99.90;;;;;;5000360;28;20026;-79
2021/09/15 06:46:04;;;;;;;79.43;53.38;;;19.20;99.90;;;;;;5001587;28;20614;-79
2021/09/15 06:48:30;;;;;;;83.15;55.40;;;19.20;99.90;;;;;;4988678;28;20038;-78
2021/09/15 06:50:55;;;;;;;86.20;54.80;;;19.20;99.90;;;;;;4999222;28;20499;-79
2021/09/15 06:53:21;;;;;;;87.75;54.97;;;19.20;99.90;;;;;;4996643;28;20095;-79
2021/09/15 06:55:46;;;;;;;81.82;54.78;;;19.10;99.90;;;;;;4993600;28;20530;-77
2021/09/15 06:58:12;;;;;;;86.85;56.40;;;19.20;99.90;;;;;;5005217;28;20509;-78
2021/09/15 07:00:38;;;;;;;82.28;54.45;;;19.20;99.90;;;;;;5007236;28;20045;-78
2021/09/15 07:03:04;;;;;;;79.72;53.05;;;19.30;99.90;;;;;;5015434;28;20044;-79
2021/09/15 07:05:31;;;;;;;77.18;52.15;;;19.40;99.90;;;;;;5012481;28;20030;-77
2021/09/15 07:07:57;;;;;;;74.13;50.67;;;19.50;99.90;;;;;;5022004;28;20041;-78
2021/09/15 07:10:22;;;;;;;73.53;52.10;;;19.50;99.90;;;;;;5012588;28;20022;-78
2021/09/15 07:12:48;;;;;;;76.30;52.00;;;19.70;99.90;;;;;;5019996;28;20026;-78
2021/09/15 07:15:15;;;;;;;71.32;50.17;;;19.70;99.90;;;;;;5016949;28;20048;-78
2021/09/15 07:17:44;;;;;;;75.43;50.00;;;19.70;99.90;;;;;;5021203;28;20025;-78
2021/09/15 07:20:12;;;;;;;71.10;50.80;;;19.60;99.90;;;;;;5005382;28;20038;-78
2021/09/15 07:22:39;;;;;;;71.60;50.15;;;19.60;99.90;;;;;;4994806;28;20045;-79
2021/09/15 07:25:05;;;;;;;71.03;50.80;;;19.70;99.90;;;;;;5009127;28;20491;-78
2021/09/15 07:27:30;;;;;;;71.05;50.50;;;19.70;99.90;;;;;;5005609;28;20088;-78
2021/09/15 07:29:56;;;;;;;68.45;49.17;;;19.70;99.90;;;;;;5003717;28;20125;-78
2021/09/15 07:32:21;;;;;;;66.85;47.45;;;19.80;99.90;;;;;;5009068;28;20068;-78
2021/09/15 07:34:47;;;;;;;66.82;47.47;;;19.90;99.90;;;;;;5007273;28;20100;-78
2021/09/15 07:37:14;;;;;;;65.93;47.45;;;19.90;99.90;;;;;;5013667;28;20021;-78
2021/09/15 07:39:40;;;;;;;65.75;47.28;;;19.90;99.90;;;;;;5005447;28;20665;-78
2021/09/15 07:42:07;;;;;;;67.30;46.80;;;20.00;99.90;;;;;;5012731;28;20117;-78
2021/09/15 07:44:32;;;;;;;69.35;47.50;;;20.00;99.90;;;;;;5009200;28;20030;-78
2021/09/15 07:46:58;;;;;;;60.63;43.78;;;20.10;99.90;;;;;;5011826;28;20087;-78
2021/09/15 07:49:24;;;;;;;58.40;42.33;;;20.10;99.90;;;;;;5005162;28;20122;-79
2021/09/15 07:51:49;;;;;;;60.22;43.20;;;20.10;99.90;;;;;;4998823;28;20136;-79
2021/09/15 07:54:15;;;;;;;61.97;44.92;;;20.20;99.90;;;;;;5012865;28;20501;-78
2021/09/15 07:56:40;;;;;;;64.40;45.95;;;20.20;99.90;;;;;;5013023;28;20402;-78
2021/09/15 07:59:06;;;;;;;59.60;44.42;;;20.20;99.90;;;;;;5000761;28;20064;-78
2021/09/15 08:01:32;;;;;;;64.15;45.97;;;20.00;99.90;;;;;;5012577;28;20104;-78
2021/09/15 08:03:57;;;;;;;60.22;42.97;;;19.90;99.90;;;;;;5009010;28;20035;-78
2021/09/15 08:06:23;;;;;;;59.20;44.20;;;19.80;99.90;;;;;;5005065;28;20081;-78
2021/09/15 08:08:48;;;;;;;62.17;45.20;;;19.70;99.90;;;;;;4995131;28;20057;-77
2021/09/15 08:11:14;;;;;;;55.80;41.67;;;19.60;99.90;;;;;;5011886;28;20030;-79
2021/09/15 08:13:41;;;;;;;56.35;41.97;;;19.60;99.90;;;;;;5006265;28;20030;-80
2021/09/15 08:16:07;;;;;;;58.72;41.15;;;19.50;99.90;;;;;;5011768;28;20028;-82
2021/09/15 08:18:33;;;;;;;54.22;41.42;;;19.60;99.90;;;;;;4995262;28;20076;-80
2021/09/15 08:21:00;;;;;;;54.97;40.75;;;19.70;99.90;;;;;;5004028;28;20058;-82
2021/09/15 08:23:26;;;;;;;53.22;39.15;;;19.70;99.90;;;;;;5010203;28;20534;-77
2021/09/15 08:25:52;;;;;;;51.05;39.33;;;19.60;99.90;;;;;;5019227;28;20033;-83
2021/09/15 08:28:18;;;;;;;49.00;37.97;;;19.70;99.90;;;;;;4991624;28;20018;-85
2021/09/15 08:30:44;;;;;;;46.05;35.67;;;19.60;99.90;;;;;;5006372;28;20491;-78
2021/09/15 08:33:17;;;;;;;41.90;34.92;;;19.70;99.90;;;;;;5004748;28;20033;-77
2021/09/15 08:35:43;;;;;;;42.85;34.13;;;19.70;99.90;;;;;;5005951;28;20021;-78
2021/09/15 08:38:12;;;;;;;41.15;33.30;;;19.80;99.90;;;;;;5000092;28;20037;-78
2021/09/15 08:40:39;;;;;;;31.67;27.33;;;19.90;99.90;;;;;;5002966;28;20033;-77
2021/09/15 08:43:04;;;;;;;30.92;24.88;;;20.00;99.90;;;;;;5012754;28;20030;-78
2021/09/15 08:45:30;;;;;;;30.08;25.17;;;19.80;99.90;;;;;;5008561;28;20105;-78
2021/09/15 08:48:00;;;;;;;30.88;26.10;;;19.80;99.90;;;;;;5005414;28;20034;-78
2021/09/15 08:50:25;;;;;;;28.27;24.15;;;19.80;99.90;;;;;;5002105;28;20092;-77
2021/09/15 08:52:51;;;;;;;28.48;25.30;;;19.80;99.90;;;;;;4998471;28;20050;-78
2021/09/15 08:55:17;;;;;;;30.95;24.02;;;19.80;99.90;;;;;;5008388;28;20502;-78
2021/09/15 08:57:43;;;;;;;27.50;23.27;;;19.90;99.90;;;;;;5009059;28;20061;-79
2021/09/15 09:00:11;;;;;;;24.40;21.80;;;19.90;99.90;;;;;;5007041;28;20029;-78
2021/09/15 09:02:43;;;;;;;23.52;21.02;;;19.80;99.90;;;;;;5007929;28;20041;-78
2021/09/15 09:05:09;;;;;;;24.20;20.48;;;19.70;99.90;;;;;;5023012;28;20050;-79
2021/09/15 09:07:35;;;;;;;22.83;19.42;;;19.70;99.90;;;;;;5006391;28;20073;-79
2021/09/15 09:10:08;;;;;;;20.40;17.92;;;19.80;99.90;;;;;;5014150;28;20030;-78
2021/09/15 09:12:34;;;;;;;;;;;19.70;99.90;;;;;;4998570;28;20467;-78
2021/09/15 09:15:27;;;;;;;21.73;17.50;;;19.80;99.90;;;;;;5009352;28;20611;-78
2021/09/15 09:18:03;;;;;;;20.95;17.17;;;20.00;99.90;;;;;;5004933;28;20053;-79
2021/09/15 09:20:36;;;;;;;18.90;15.38;;;20.30;99.90;;;;;;5003052;28;20025;-78
2021/09/15 09:23:12;;;;;;;16.08;14.05;;;20.40;99.90;;;;;;4984345;28;20406;-79
2021/09/15 09:25:40;;;;;;;17.17;13.95;;;20.50;99.90;;;;;;5005519;28;20060;-79
2021/09/15 09:28:28;;;;;;;16.98;13.50;;;20.50;99.90;;;;;;5003962;28;20078;-79
2021/09/15 09:30:57;;;;;;;14.93;12.77;;;20.40;99.90;;;;;;4995850;28;20033;-79
2021/09/15 09:33:23;;;;;;;14.88;13.25;;;20.40;99.90;;;;;;5001383;28;20014;-78
2021/09/15 09:35:56;;;;;;;18.50;13.02;;;20.70;99.90;;;;;;5003423;28;20113;-77
2021/09/15 09:38:34;;;;;;;13.80;12.35;;;20.60;99.90;;;;;;5008821;28;20077;-78
2021/09/15 09:41:33;;;;;;;14.55;12.68;;;20.70;99.90;;;;;;5003748;28;20026;-77
2021/09/15 09:43:58;;;;;;;16.65;12.48;;;20.60;99.90;;;;;;4998831;28;20135;-77
2021/09/15 09:46:35;;;;;;;12.30;11.05;;;21.00;99.90;;;;;;5004023;28;20058;-78
2021/09/15 09:49:02;;;;;;;13.60;10.63;;;21.80;99.90;;;;;;4998109;28;20034;-79
2021/09/15 09:51:37;;;;;;;14.10;10.63;;;22.10;99.90;;;;;;5007958;28;20029;-79
2021/09/15 09:54:24;;;;;;;15.23;9.68;;;22.10;99.90;;;;;;5002757;28;20402;-81
2021/09/15 09:56:53;;;;;;;10.68;8.60;;;22.40;99.90;;;;;;5006271;28;20053;-79
2021/09/15 09:59:20;;;;;;;17.77;8.25;;;22.80;99.90;;;;;;5020146;28;20026;-82
2021/09/15 10:01:53;;;;;;;8.45;7.38;;;23.50;99.90;;;;;;5007673;28;20033;-78
2021/09/15 10:04:20;;;;;;;11.55;7.35;;;23.80;99.90;;;;;;5005971;28;20495;-82
2021/09/15 10:06:48;;;;;;;12.27;7.60;;;24.50;99.90;;;;;;5012808;28;20036;-85
2021/09/15 10:09:14;;;;;;;9.60;6.80;;;24.60;99.90;;;;;;5012339;28;20041;-79
2021/09/15 10:11:41;;;;;;;7.90;6.38;;;24.40;99.90;;;;;;5012593;28;21759;-79
2021/09/15 10:14:14;;;;;;;9.15;6.22;;;23.90;99.90;;;;;;5006166;28;20056;-79
2021/09/15 10:16:48;;;;;;;10.07;6.53;;;23.80;99.90;;;;;;5011121;28;20026;-78
2021/09/15 10:19:17;;;;;;;9.45;6.50;;;24.00;99.90;;;;;;5001476;28;20087;-79
2021/09/15 10:21:54;;;;;;;9.05;6.63;;;23.60;99.90;;;;;;5003574;28;20269;-78
2021/09/15 10:24:20;;;;;;;9.48;6.25;;;23.80;99.90;;;;;;5008629;28;20034;-78
2021/09/15 10:26:57;;;;;;;6.63;5.57;;;23.80;99.90;;;;;;5013758;28;20021;-78
2021/09/15 10:29:28;;;;;;;8.07;5.47;;;24.00;99.90;;;;;;5009049;28;20041;-78
2021/09/15 10:32:12;;;;;;;7.25;5.38;;;24.50;99.90;;;;;;5010523;28;20475;-78
2021/09/15 10:34:41;;;;;;;8.63;5.32;;;24.30;99.90;;;;;;5002764;28;20038;-79
2021/09/15 10:37:12;;;;;;;8.68;5.47;;;24.50;99.90;;;;;;5014541;28;20360;-79
2021/09/15 10:40:03;;;;;;;7.80;4.97;;;24.20;99.90;;;;;;5016025;28;20048;-79
2021/09/15 10:42:38;;;;;;;6.45;4.53;;;24.30;99.90;;;;;;5007626;28;20105;-79
2021/09/15 10:45:09;;;;;;;5.50;4.18;;;24.40;99.90;;;;;;5011422;28;20076;-79
2021/09/15 10:47:39;;;;;;;6.88;4.35;;;24.40;99.90;;;;;;5013056;28;20022;-79
2021/09/15 10:50:06;;;;;;;8.70;4.80;;;24.50;99.90;;;;;;5013707;28;20018;-78
2021/09/15 10:52:40;;;;;;;6.32;4.55;;;24.70;99.90;;;;;;5013894;28;20026;-78
2021/09/15 10:55:54;;;;;;;4.78;3.72;;;24.60;99.90;;;;;;4997199;28;20037;-79
2021/09/15 10:58:26;;;;;;;9.00;4.68;;;24.20;99.90;;;;;;4996055;28;20050;-78
2021/09/15 11:00:51;;;;;;;;;;;23.90;99.90;;;;;;4997805;28;20033;-78
2021/09/15 11:03:30;;;;;;;6.47;4.20;;;24.10;99.90;;;;;;4994490;28;19910;-78
2021/09/15 11:05:59;;;;;;;7.30;4.03;;;24.60;99.90;;;;;;4994757;28;20045;-78
2021/09/15 11:08:33;;;;;;;5.53;3.72;;;25.00;99.90;;;;;;4994910;28;20037;-78
2021/09/15 11:11:01;;;;;;;8.57;3.78;;;25.40;99.90;;;;;;5009521;28;20022;-78
2021/09/15 11:13:36;;;;;;;7.93;4.20;;;25.50;99.90;;;;;;5019886;28;20314;-78
2021/09/15 11:16:25;;;;;;;6.85;3.92;;;25.20;99.90;;;;;;5047196;28;20045;-79
2021/09/15 11:19:07;;;;;;;5.13;3.83;;;25.30;99.90;;;;;;5010186;28;20029;-78
2021/09/15 11:21:35;;;;;;;7.10;3.45;;;24.80;99.90;;;;;;5014452;28;20387;-78
2021/09/15 11:24:12;;;;;;;6.57;3.67;;;24.50;99.90;;;;;;5013964;28;20022;-78
2021/09/15 11:26:44;;;;;;;6.85;4.00;;;24.50;99.90;;;;;;5013986;28;20022;-78
2021/09/15 11:29:10;;;;;;;7.80;4.15;;;24.60;99.90;;;;;;5015541;28;20036;-78
2021/09/15 11:31:37;;;;;;;9.25;3.75;;;24.40;99.90;;;;;;5013922;28;20033;-78
2021/09/15 11:34:14;;;;;;;10.63;3.90;;;23.70;99.90;;;;;;5013962;28;20030;-78
2021/09/15 11:36:47;;;;;;;6.53;3.78;;;23.40;99.90;;;;;;5013382;28;20025;-78
2021/09/15 11:39:17;;;;;;;11.93;3.65;;;23.10;99.90;;;;;;5013970;28;20022;-78
2021/09/15 11:41:43;;;;;;;8.18;3.40;;;22.80;99.90;;;;;;5013263;28;20387;-78
2021/09/15 11:44:08;;;;;;;6.82;3.25;;;22.90;99.90;;;;;;5012676;28;20022;-78
2021/09/15 11:46:36;;;;;;;5.75;3.00;;;22.70;99.90;;;;;;5013452;28;20030;-79
2021/09/15 11:49:04;;;;;;;8.85;3.08;;;22.40;99.90;;;;;;5013211;28;20037;-79
2021/09/15 11:51:33;;;;;;;8.65;2.38;;;22.50;99.90;;;;;;5006929;28;20061;-78
2021/09/15 11:56:32;;;;;;;5.65;1.23;;;22.40;99.90;;;;;;5012346;28;20038;-78
2021/09/15 11:58:59;;;;;;;6.13;1.40;;;22.30;99.90;;;;;;5015209;28;20025;-78
2021/09/15 12:01:27;;;;;;;6.03;1.20;;;22.40;99.90;;;;;;5014445;28;20022;-78
2021/09/15 12:03:56;;;;;;;4.25;1.25;;;22.50;99.90;;;;;;5014357;28;20026;-78
2021/09/15 12:06:22;;;;;;;7.30;1.33;;;22.40;99.90;;;;;;5011613;28;20213;-77
2021/09/15 12:08:47;;;;;;;5.13;1.15;;;22.40;99.90;;;;;;5003275;28;20424;-77
2021/09/15 12:11:15;;;;;;;5.18;1.30;;;22.30;99.90;;;;;;5012453;28;20052;-77
2021/09/15 12:13:40;;;;;;;5.60;1.10;;;22.40;99.90;;;;;;5009612;28;20112;-77
2021/09/15 12:16:06;;;;;;;4.85;1.45;;;22.70;99.90;;;;;;4993161;28;20122;-77
2021/09/15 12:18:50;;;;;;;7.88;1.45;;;22.80;99.90;;;;;;4994309;28;20027;-78
2021/09/15 12:21:23;;;;;;;6.82;1.33;;;22.80;99.90;;;;;;4994546;28;20026;-78
2021/09/15 12:23:50;;;;;;;6.95;1.05;;;22.50;99.90;;;;;;4993020;28;20039;-78
2021/09/15 12:26:27;;;;;;;3.95;1.00;;;22.10;99.90;;;;;;4994486;28;20408;-78
2021/09/15 12:29:01;;;;;;;7.88;1.00;;;22.00;99.90;;;;;;4995624;28;20356;-79
2021/09/15 12:31:38;;;;;;;6.22;1.23;;;22.20;99.90;;;;;;4993607;28;20057;-78
2021/09/15 12:34:05;;;;;;;5.13;1.52;;;22.40;99.90;;;;;;4996021;28;20080;-80
2021/09/15 12:36:30;;;;;;;5.78;1.15;;;22.40;99.90;;;;;;4978668;28;20037;-79
2021/09/15 12:39:03;;;;;;;4.35;1.50;;;22.20;99.90;;;;;;4994567;28;20030;-79
2021/09/15 12:41:48;;;;;;;2.97;1.08;;;22.10;99.90;;;;;;4983568;28;20447;-79
2021/09/15 12:44:14;;;;;;;6.22;1.30;;;21.90;99.90;;;;;;5015805;28;20065;-78